Time;durP1;ratioP1;P1;durP2;ratioP2;P2;SDS_P1;SDS_P2;PMS_P1;PMS_P2;Temp;Humidity;BMP_temperature;BMP_pressure;BME280_temperature;BME280_humidity;BME280_pressure;Samples;Min_cycle;Max_cycle;Signal;HPM_P1;HPM_P2
2022/11/03 00:02:11;;;;;;;12.43;2.42;;;;;;;;;;5050408;28;20049;-80
2022/11/03 00:04:37;;;;;;;15.35;2.50;;;;;;;;;;5050894;28;20041;-79
2022/11/03 00:07:03;;;;;;;13.95;2.80;;;;;;;;;;5050656;28;20044;-80
2022/11/03 00:09:30;;;;;;;12.50;2.45;;;;;;;;;;5017781;28;20041;-70
2022/11/03 00:11:57;;;;;;;12.35;2.17;;;;;;;;;;5034023;28;20077;-70
2022/11/03 00:14:23;;;;;;;7.90;1.70;;;;;;;;;;5033919;28;20041;-70
2022/11/03 00:16:49;;;;;;;13.48;2.33;;;;;;;;;;5034244;28;20041;-70
2022/11/03 00:19:16;;;;;;;9.93;2.20;;;;;;;;;;5033638;28;20052;-70
2022/11/03 00:21:42;;;;;;;11.13;2.50;;;;;;;;;;5033980;28;20064;-70
2022/11/03 00:24:08;;;;;;;10.93;2.58;;;;;;;;;;5050177;28;20040;-70
2022/11/03 00:26:35;;;;;;;15.90;2.80;;;;;;;;;;5051903;28;20037;-70
2022/11/03 00:29:08;;;;;;;12.82;2.00;;;;;;;;;;5050080;28;20044;-80
2022/11/03 00:31:35;;;;;;;15.63;2.22;;;;;;;;;;5050612;28;20123;-80
2022/11/03 00:34:02;;;;;;;10.52;2.15;;;;;;;;;;5053246;28;20409;-79
2022/11/03 00:36:29;;;;;;;8.13;1.88;;;;;;;;;;5051617;28;20051;-79
2022/11/03 00:38:55;;;;;;;9.68;2.22;;;;;;;;;;5051359;28;20127;-79
2022/11/03 00:41:22;;;;;;;12.10;1.88;;;;;;;;;;5051839;28;20402;-79
2022/11/03 00:43:48;;;;;;;13.38;2.30;;;;;;;;;;5050603;28;20118;-79
2022/11/03 00:46:15;;;;;;;12.63;3.17;;;;;;;;;;5050708;28;20071;-80
2022/11/03 00:48:41;;;;;;;10.70;1.92;;;;;;;;;;5050280;28;20107;-79
2022/11/03 00:51:08;;;;;;;11.43;2.30;;;;;;;;;;5033587;28;20083;-79
2022/11/03 00:53:47;;;;;;;17.10;2.40;;;;;;;;;;5052158;28;20523;-80
2022/11/03 00:56:24;;;;;;;10.65;2.03;;;;;;;;;;5033745;28;20481;-80
2022/11/03 00:58:50;;;;;;;12.18;2.88;;;;;;;;;;5038178;28;20542;-79
2022/11/03 01:01:16;;;;;;;12.85;2.20;;;;;;;;;;5034756;28;20436;-79
2022/11/03 01:06:48;;;;;;;11.48;2.55;;;;;;;;;;5050584;28;20553;-79
2022/11/03 01:06:48;;;;;;;10.98;2.40;;;;;;;;;;5050705;28;20418;-78
2022/11/03 01:09:14;;;;;;;12.15;2.13;;;;;;;;;;5049700;28;20053;-78
2022/11/03 01:11:43;;;;;;;10.07;2.20;;;;;;;;;;5052117;28;20033;-79
2022/11/03 01:14:11;;;;;;;16.23;2.58;;;;;;;;;;5053602;28;20043;-69
2022/11/03 01:16:37;;;;;;;14.85;2.67;;;;;;;;;;5053917;28;20432;-69
2022/11/03 01:19:03;;;;;;;13.02;2.45;;;;;;;;;;5054508;28;20056;-70
2022/11/03 01:21:29;;;;;;;8.73;2.25;;;;;;;;;;5053820;28;20110;-78
2022/11/03 01:23:55;;;;;;;11.25;2.10;;;;;;;;;;5053652;28;20045;-78
2022/11/03 01:26:21;;;;;;;16.65;2.40;;;;;;;;;;5054440;28;20056;-69
2022/11/03 01:28:47;;;;;;;14.35;2.50;;;;;;;;;;5053271;28;20041;-79
2022/11/03 01:31:18;;;;;;;18.73;2.38;;;;;;;;;;5036506;28;20052;-70
2022/11/03 01:33:45;;;;;;;12.13;2.13;;;;;;;;;;5053501;28;20502;-70
2022/11/03 01:36:12;;;;;;;13.00;2.30;;;;;;;;;;5053088;28;20044;-80
2022/11/03 01:38:38;;;;;;;11.07;2.22;;;;;;;;;;5053419;28;20518;-79
2022/11/03 01:41:05;;;;;;;11.75;2.40;;;;;;;;;;5053437;28;20041;-77
2022/11/03 01:43:32;;;;;;;11.27;2.50;;;;;;;;;;5053221;28;20049;-79
2022/11/03 01:46:01;;;;;;;14.82;2.25;;;;;;;;;;5053384;28;20513;-79
2022/11/03 01:48:27;;;;;;;10.45;2.92;;;;;;;;;;5035847;28;20088;-79
2022/11/03 01:50:54;;;;;;;13.18;2.08;;;;;;;;;;5053094;28;20068;-69
2022/11/03 01:53:20;;;;;;;11.38;2.58;;;;;;;;;;5052644;28;20044;-76
2022/11/03 01:55:48;;;;;;;14.73;2.15;;;;;;;;;;5054451;28;20158;-80
2022/11/03 01:58:16;;;;;;;13.55;2.42;;;;;;;;;;5036150;28;20041;-80
2022/11/03 02:00:43;;;;;;;13.90;2.45;;;;;;;;;;5053156;28;20044;-79
2022/11/03 02:03:09;;;;;;;12.65;2.28;;;;;;;;;;5071869;28;20056;-80
2022/11/03 02:05:36;;;;;;;15.02;2.60;;;;;;;;;;5020216;28;20490;-79
2022/11/03 02:08:02;;;;;;;16.23;2.95;;;;;;;;;;5052709;28;20120;-79
2022/11/03 02:10:28;;;;;;;14.00;2.83;;;;;;;;;;5052567;28;20090;-78
2022/11/03 02:12:54;;;;;;;8.88;2.30;;;;;;;;;;5052957;28;20556;-78
2022/11/03 02:15:22;;;;;;;15.48;2.45;;;;;;;;;;5052187;28;20052;-79
2022/11/03 02:17:49;;;;;;;13.18;3.22;;;;;;;;;;5052621;28;20095;-78
2022/11/03 02:20:17;;;;;;;10.93;2.40;;;;;;;;;;5052175;28;20052;-79
2022/11/03 02:22:52;;;;;;;12.60;2.45;;;;;;;;;;5053959;28;20122;-78
2022/11/03 02:25:36;;;;;;;12.90;2.50;;;;;;;;;;5053465;28;20041;-79
2022/11/03 02:28:04;;;;;;;18.40;2.30;;;;;;;;;;5053593;28;20045;-77
2022/11/03 02:30:34;;;;;;;10.80;2.30;;;;;;;;;;5051849;28;20037;-80
2022/11/03 02:33:15;;;;;;;13.52;2.40;;;;;;;;;;5052690;28;20497;-69
2022/11/03 02:35:41;;;;;;;12.20;2.50;;;;;;;;;;5040012;28;20041;-69
2022/11/03 02:38:11;;;;;;;13.75;2.50;;;;;;;;;;5053737;28;20124;-70
2022/11/03 02:40:41;;;;;;;12.05;2.63;;;;;;;;;;5053205;28;20428;-71
2022/11/03 02:43:08;;;;;;;12.35;2.45;;;;;;;;;;5035337;28;20095;-70
2022/11/03 02:45:34;;;;;;;11.23;2.17;;;;;;;;;;5051415;28;20051;-71
2022/11/03 02:48:02;;;;;;;18.50;3.60;;;;;;;;;;5035288;28;20513;-70
2022/11/03 02:50:29;;;;;;;13.57;2.47;;;;;;;;;;5051602;28;20120;-81
2022/11/03 02:52:56;;;;;;;12.35;2.35;;;;;;;;;;5052035;28;20486;-70
2022/11/03 02:55:32;;;;;;;12.88;2.40;;;;;;;;;;5051534;28;20041;-70
2022/11/03 02:58:04;;;;;;;14.90;2.65;;;;;;;;;;5035066;28;20124;-70
2022/11/03 03:00:32;;;;;;;12.15;2.63;;;;;;;;;;5049892;28;20485;-70
2022/11/03 03:03:17;;;;;;;14.38;2.88;;;;;;;;;;5052056;28;20045;-70
2022/11/03 03:05:44;;;;;;;20.35;3.65;;;;;;;;;;5051226;28;20037;-70
2022/11/03 03:08:11;;;;;;;13.75;2.10;;;;;;;;;;5052508;28;20120;-70
2022/11/03 03:10:39;;;;;;;12.55;2.13;;;;;;;;;;5051730;28;20099;-70
2022/11/03 03:13:07;;;;;;;13.07;2.35;;;;;;;;;;5051466;28;20041;-70
2022/11/03 03:15:41;;;;;;;17.02;2.80;;;;;;;;;;5051341;28;20509;-70
2022/11/03 03:18:21;;;;;;;14.30;2.08;;;;;;;;;;5052570;28;20375;-80
2022/11/03 03:20:53;;;;;;;9.70;2.40;;;;;;;;;;5051372;28;20099;-79
2022/11/03 03:23:21;;;;;;;12.95;2.25;;;;;;;;;;5051553;28;20508;-78
2022/11/03 03:25:50;;;;;;;11.82;2.33;;;;;;;;;;5051360;28;20037;-79
2022/11/03 03:28:18;;;;;;;13.00;2.90;;;;;;;;;;5052277;28;20552;-80
2022/11/03 03:30:46;;;;;;;15.40;2.50;;;;;;;;;;5051280;28;20041;-79
2022/11/03 03:33:13;;;;;;;11.65;2.28;;;;;;;;;;5051268;28;20072;-70
2022/11/03 03:35:41;;;;;;;11.63;2.35;;;;;;;;;;5050687;28;20494;-79
2022/11/03 03:38:13;;;;;;;13.35;2.20;;;;;;;;;;5051334;28;20394;-70
2022/11/03 03:40:42;;;;;;;11.98;2.53;;;;;;;;;;5051641;28;20106;-70
2022/11/03 03:43:09;;;;;;;14.27;2.25;;;;;;;;;;5051256;28;20044;-70
2022/11/03 03:45:36;;;;;;;14.35;2.70;;;;;;;;;;5051971;28;20119;-70
2022/11/03 03:48:03;;;;;;;13.30;2.67;;;;;;;;;;5050416;28;20098;-70
2022/11/03 03:50:31;;;;;;;13.68;2.55;;;;;;;;;;5050308;28;20097;-70
2022/11/03 03:52:57;;;;;;;11.38;2.45;;;;;;;;;;5050958;28;20052;-70
2022/11/03 03:55:26;;;;;;;15.80;3.05;;;;;;;;;;5051760;28;20041;-70
2022/11/03 03:57:52;;;;;;;14.18;2.25;;;;;;;;;;5050721;28;20049;-70
2022/11/03 04:00:18;;;;;;;13.88;2.80;;;;;;;;;;5034091;28;20045;-70
2022/11/03 04:02:44;;;;;;;10.10;2.28;;;;;;;;;;5034168;28;20187;-70
2022/11/03 04:05:10;;;;;;;12.15;2.53;;;;;;;;;;5050863;28;20045;-70
2022/11/03 04:07:48;;;;;;;14.30;2.33;;;;;;;;;;5033563;28;20041;-79
2022/11/03 04:10:15;;;;;;;12.60;2.58;;;;;;;;;;5051040;28;20052;-78
2022/11/03 04:23:46;;;;;;;14.00;2.72;;;;;;;;;;5050666;28;20045;-78
2022/11/03 04:26:13;;;;;;;10.25;2.00;;;;;;;;;;5052000;28;20468;-78
2022/11/03 04:28:42;;;;;;;11.82;2.50;;;;;;;;;;5050188;28;20485;-79
2022/11/03 04:31:12;;;;;;;15.10;2.58;;;;;;;;;;5050167;28;20087;-79
2022/11/03 04:33:40;;;;;;;12.50;2.28;;;;;;;;;;5051312;28;20033;-79
2022/11/03 04:36:19;;;;;;;12.85;2.35;;;;;;;;;;5050266;28;20044;-77
2022/11/03 04:38:46;;;;;;;10.27;2.33;;;;;;;;;;5050289;28;20048;-79
2022/11/03 04:41:15;;;;;;;15.70;2.70;;;;;;;;;;5050507;28;20060;-80
2022/11/03 04:43:41;;;;;;;13.80;2.92;;;;;;;;;;5033507;28;20041;-70
2022/11/03 04:46:10;;;;;;;14.45;2.50;;;;;;;;;;5051435;28;20048;-80
2022/11/03 04:48:36;;;;;;;12.10;2.67;;;;;;;;;;5054337;28;20056;-80
2022/11/03 04:51:10;;;;;;;13.10;2.92;;;;;;;;;;5037532;28;20098;-80
2022/11/03 04:53:36;;;;;;;13.20;2.80;;;;;;;;;;5055011;28;20036;-79
2022/11/03 04:56:13;;;;;;;13.27;2.70;;;;;;;;;;5054126;28;20063;-79
2022/11/03 04:58:39;;;;;;;13.23;2.53;;;;;;;;;;5053936;28;20444;-78
2022/11/03 05:01:10;;;;;;;12.82;2.78;;;;;;;;;;5050257;28;20397;-79
2022/11/03 05:03:37;;;;;;;12.63;2.50;;;;;;;;;;5050052;28;20136;-70
2022/11/03 05:06:14;;;;;;;12.10;2.40;;;;;;;;;;5052519;28;20040;-70
2022/11/03 05:08:42;;;;;;;11.27;2.70;;;;;;;;;;5053209;28;20056;-70
2022/11/03 05:11:18;;;;;;;13.88;2.92;;;;;;;;;;5087253;28;20048;-70
2022/11/03 05:13:44;;;;;;;13.27;2.60;;;;;;;;;;5053489;28;20052;-80
2022/11/03 05:16:10;;;;;;;12.48;2.13;;;;;;;;;;5053830;28;20033;-77
2022/11/03 05:18:38;;;;;;;12.18;2.40;;;;;;;;;;5036585;28;20037;-70
2022/11/03 05:21:07;;;;;;;8.20;2.17;;;;;;;;;;5053364;28;20056;-70
2022/11/03 05:23:40;;;;;;;17.10;2.90;;;;;;;;;;5053083;28;20037;-70
2022/11/03 05:26:10;;;;;;;10.80;2.83;;;;;;;;;;5054760;28;20033;-70
2022/11/03 05:28:41;;;;;;;15.90;2.50;;;;;;;;;;5054381;28;20039;-70
2022/11/03 05:31:19;;;;;;;10.57;2.67;;;;;;;;;;5054395;28;20040;-70
2022/11/03 05:33:48;;;;;;;16.27;2.72;;;;;;;;;;5052979;28;20041;-70
2022/11/03 05:36:16;;;;;;;14.30;2.40;;;;;;;;;;5053192;28;20052;-70
2022/11/03 05:38:42;;;;;;;12.20;2.38;;;;;;;;;;5036141;28;20155;-69
2022/11/03 05:41:13;;;;;;;7.88;2.50;;;;;;;;;;5054624;28;20079;-79
2022/11/03 05:43:39;;;;;;;12.70;2.25;;;;;;;;;;5032869;28;20033;-77
2022/11/03 05:46:10;;;;;;;13.48;2.72;;;;;;;;;;5046152;28;20036;-78
2022/11/03 05:48:43;;;;;;;15.32;2.50;;;;;;;;;;5035870;28;20474;-80
2022/11/03 05:51:18;;;;;;;10.55;2.30;;;;;;;;;;5054212;28;20045;-79
2022/11/03 05:53:44;;;;;;;10.68;2.25;;;;;;;;;;5052623;28;20033;-79
2022/11/03 05:56:17;;;;;;;14.07;2.63;;;;;;;;;;5054226;28;20087;-79
2022/11/03 05:58:44;;;;;;;11.48;2.50;;;;;;;;;;5052516;28;20041;-80
2022/11/03 06:01:24;;;;;;;12.60;2.65;;;;;;;;;;5052988;28;20045;-79
2022/11/03 06:03:50;;;;;;;9.45;2.20;;;;;;;;;;5052708;28;20041;-80
2022/11/03 06:06:25;;;;;;;9.05;2.13;;;;;;;;;;5036216;28;20041;-77
2022/11/03 06:08:52;;;;;;;7.47;2.05;;;;;;;;;;5053864;28;20497;-79
2022/11/03 06:11:24;;;;;;;11.50;2.35;;;;;;;;;;5052802;28;20171;-79
2022/11/03 06:13:50;;;;;;;13.13;2.50;;;;;;;;;;5052021;28;20072;-79
2022/11/03 06:16:19;;;;;;;13.02;2.75;;;;;;;;;;5019707;28;20045;-79
2022/11/03 06:18:45;;;;;;;12.85;2.45;;;;;;;;;;5035373;28;20036;-70
2022/11/03 06:21:21;;;;;;;15.18;2.65;;;;;;;;;;5036059;28;20516;-70
2022/11/03 06:23:47;;;;;;;15.35;2.20;;;;;;;;;;5051893;28;20044;-70
2022/11/03 06:26:18;;;;;;;12.98;2.53;;;;;;;;;;5052470;28;20040;-69
2022/11/03 06:28:44;;;;;;;14.23;2.50;;;;;;;;;;5051772;28;20115;-70
2022/11/03 06:31:17;;;;;;;13.05;2.53;;;;;;;;;;5052068;28;20040;-70
2022/11/03 06:33:43;;;;;;;10.77;2.22;;;;;;;;;;5085416;28;20045;-70
2022/11/03 06:36:18;;;;;;;17.23;2.95;;;;;;;;;;5051954;28;20123;-70
2022/11/03 06:38:46;;;;;;;16.73;2.65;;;;;;;;;;5052894;28;20041;-70
2022/11/03 06:41:32;;;;;;;13.52;2.35;;;;;;;;;;5052193;28;20037;-70
2022/11/03 06:44:01;;;;;;;14.98;2.75;;;;;;;;;;5052909;28;20433;-70
2022/11/03 06:46:27;;;;;;;16.33;2.88;;;;;;;;;;5035550;28;20049;-79
2022/11/03 06:48:55;;;;;;;10.98;2.45;;;;;;;;;;5052665;28;20049;-79
2022/11/03 06:51:21;;;;;;;15.63;2.50;;;;;;;;;;5054755;28;20198;-79
2022/11/03 06:53:48;;;;;;;12.55;2.13;;;;;;;;;;5053873;28;20091;-78
2022/11/03 06:56:16;;;;;;;9.98;2.25;;;;;;;;;;5055296;28;20429;-79
2022/11/03 06:58:42;;;;;;;12.40;2.53;;;;;;;;;;5052405;28;20511;-79
2022/11/03 07:01:14;;;;;;;9.38;2.47;;;;;;;;;;5051937;28;20041;-77
2022/11/03 07:03:40;;;;;;;13.93;3.08;;;;;;;;;;5051335;28;20048;-79
2022/11/03 07:06:13;;;;;;;13.57;2.60;;;;;;;;;;5052235;28;20446;-79
2022/11/03 07:08:39;;;;;;;11.02;2.13;;;;;;;;;;5050283;28;20045;-80
2022/11/03 07:11:15;;;;;;;11.45;2.20;;;;;;;;;;5035159;28;20049;-78
2022/11/03 07:13:41;;;;;;;8.77;2.42;;;;;;;;;;5050803;28;20083;-70
2022/11/03 07:16:19;;;;;;;16.20;2.60;;;;;;;;;;5053056;28;20045;-69
2022/11/03 07:18:46;;;;;;;9.48;2.58;;;;;;;;;;5051042;28;20055;-70
2022/11/03 07:21:32;;;;;;;12.45;3.03;;;;;;;;;;5052665;28;20114;-70
2022/11/03 07:23:59;;;;;;;;;;;;;;;;;;5048514;28;20071;-70
2022/11/03 07:26:25;;;;;;;10.18;2.53;;;;;;;;;;5040248;28;19920;-70
2022/11/03 07:28:52;;;;;;;12.90;2.35;;;;;;;;;;5050596;28;20049;-70
2022/11/03 07:31:25;;;;;;;11.00;2.17;;;;;;;;;;5051244;28;20036;-69
2022/11/03 07:33:56;;;;;;;9.15;2.33;;;;;;;;;;5051949;28;20048;-70
2022/11/03 07:36:23;;;;;;;11.32;2.42;;;;;;;;;;5051133;28;20053;-79
2022/11/03 07:38:52;;;;;;;11.45;2.47;;;;;;;;;;5052026;28;20418;-70
2022/11/03 07:41:24;;;;;;;13.10;2.28;;;;;;;;;;5051255;28;20479;-70
2022/11/03 07:43:53;;;;;;;14.35;3.10;;;;;;;;;;5050784;28;20577;-70
2022/11/03 07:46:20;;;;;;;12.18;2.38;;;;;;;;;;5034675;28;20559;-79
2022/11/03 07:48:47;;;;;;;11.25;2.47;;;;;;;;;;5033852;28;20107;-79
2022/11/03 07:51:22;;;;;;;14.65;2.80;;;;;;;;;;5051547;28;20429;-79
2022/11/03 07:53:49;;;;;;;11.00;2.47;;;;;;;;;;5052273;28;20036;-78
2022/11/03 07:56:18;;;;;;;9.98;2.50;;;;;;;;;;5052771;28;20037;-79
2022/11/03 07:58:44;;;;;;;11.55;2.40;;;;;;;;;;5051334;28;20040;-80
2022/11/03 08:01:23;;;;;;;9.45;3.47;;;;;;;;;;5052344;28;20478;-70
2022/11/03 08:03:49;;;;;;;8.65;2.30;;;;;;;;;;5050481;28;20037;-70
2022/11/03 08:06:15;;;;;;;10.90;2.80;;;;;;;;;;5050923;28;20044;-70
2022/11/03 08:08:41;;;;;;;10.70;2.90;;;;;;;;;;5050522;28;20072;-70
2022/11/03 08:11:07;;;;;;;9.82;2.47;;;;;;;;;;5034280;28;20393;-70
2022/11/03 08:13:33;;;;;;;11.10;2.45;;;;;;;;;;5051917;28;20037;-70
2022/11/03 08:15:59;;;;;;;9.88;2.20;;;;;;;;;;5050870;28;20063;-70
2022/11/03 08:18:25;;;;;;;11.55;2.45;;;;;;;;;;5050879;28;20055;-70
2022/11/03 08:20:52;;;;;;;10.60;2.30;;;;;;;;;;5052811;28;20493;-70
2022/11/03 08:23:18;;;;;;;10.20;2.42;;;;;;;;;;5038375;28;20159;-70
2022/11/03 08:25:44;;;;;;;8.32;2.15;;;;;;;;;;5055948;28;20044;-70
2022/11/03 08:28:11;;;;;;;14.68;3.10;;;;;;;;;;5054205;28;20041;-70
2022/11/03 08:30:37;;;;;;;8.32;2.00;;;;;;;;;;5038009;28;20079;-70
2022/11/03 08:33:03;;;;;;;10.82;2.58;;;;;;;;;;5037608;28;20037;-70
2022/11/03 08:35:29;;;;;;;10.15;2.53;;;;;;;;;;5054903;28;20505;-70
2022/11/03 08:37:55;;;;;;;14.05;2.50;;;;;;;;;;5054604;28;20041;-79
2022/11/03 08:40:21;;;;;;;9.48;2.28;;;;;;;;;;5055990;28;20502;-79
2022/11/03 08:42:48;;;;;;;11.50;2.33;;;;;;;;;;5038827;28;20052;-79
2022/11/03 08:45:15;;;;;;;9.07;2.20;;;;;;;;;;5054494;28;20390;-81
2022/11/03 08:47:41;;;;;;;11.70;2.55;;;;;;;;;;5038612;28;20498;-79
2022/11/03 08:50:07;;;;;;;11.48;2.58;;;;;;;;;;5053895;28;20056;-77
2022/11/03 08:52:33;;;;;;;10.55;2.50;;;;;;;;;;5054555;28;20401;-80
2022/11/03 08:54:59;;;;;;;7.82;2.30;;;;;;;;;;5053837;28;20095;-71
2022/11/03 08:57:25;;;;;;;13.82;2.30;;;;;;;;;;5054544;28;20045;-79
2022/11/03 08:59:51;;;;;;;11.07;2.75;;;;;;;;;;5054031;28;20116;-80
2022/11/03 09:02:18;;;;;;;11.90;2.33;;;;;;;;;;5054536;28;20041;-78
2022/11/03 09:04:44;;;;;;;10.73;2.88;;;;;;;;;;5055707;28;20072;-79
2022/11/03 09:07:10;;;;;;;9.80;2.25;;;;;;;;;;5055089;28;20044;-79
2022/11/03 09:09:36;;;;;;;7.03;2.25;;;;;;;;;;5055404;28;20041;-77
2022/11/03 09:12:02;;;;;;;10.40;2.63;;;;;;;;;;5054915;28;20036;-81
2022/11/03 09:14:28;;;;;;;8.63;2.28;;;;;;;;;;5063661;28;20541;-78
2022/11/03 09:16:54;;;;;;;8.95;2.33;;;;;;;;;;5058989;28;20048;-81
2022/11/03 09:19:20;;;;;;;9.65;2.40;;;;;;;;;;5037378;28;20040;-70
2022/11/03 09:21:46;;;;;;;11.20;2.30;;;;;;;;;;5053797;28;20068;-71
2022/11/03 09:24:13;;;;;;;11.95;2.78;;;;;;;;;;5053465;28;20432;-71
2022/11/03 09:26:39;;;;;;;11.82;2.72;;;;;;;;;;5053572;28;20131;-70
2022/11/03 09:29:05;;;;;;;11.48;2.45;;;;;;;;;;5052967;28;20044;-71
2022/11/03 09:31:31;;;;;;;9.82;2.63;;;;;;;;;;5052462;28;20044;-71
2022/11/03 09:33:57;;;;;;;10.57;2.60;;;;;;;;;;5053455;28;20094;-70
2022/11/03 09:36:23;;;;;;;13.10;2.65;;;;;;;;;;5053172;28;20056;-70
2022/11/03 09:38:49;;;;;;;10.52;3.08;;;;;;;;;;5053707;28;20041;-70
2022/11/03 09:41:19;;;;;;;10.13;2.50;;;;;;;;;;5036198;28;20048;-69
2022/11/03 09:43:45;;;;;;;13.43;2.65;;;;;;;;;;5053305;28;20068;-77
2022/11/03 09:46:11;;;;;;;8.57;2.00;;;;;;;;;;5052904;28;20041;-70
2022/11/03 09:48:38;;;;;;;11.15;2.50;;;;;;;;;;5053973;28;20214;-69
2022/11/03 09:51:04;;;;;;;11.43;2.42;;;;;;;;;;5036620;28;20470;-69
2022/11/03 09:53:31;;;;;;;12.60;2.75;;;;;;;;;;5054277;28;20043;-79
2022/11/03 09:55:57;;;;;;;9.52;2.58;;;;;;;;;;5053099;28;20087;-77
2022/11/03 09:58:23;;;;;;;10.30;2.53;;;;;;;;;;5053269;28;20444;-78
2022/11/03 10:00:49;;;;;;;9.85;2.50;;;;;;;;;;5053720;28;20072;-78
2022/11/03 10:03:16;;;;;;;13.48;2.53;;;;;;;;;;5052967;28;20044;-76
2022/11/03 10:05:46;;;;;;;15.00;2.63;;;;;;;;;;5052839;28;20041;-77
2022/11/03 10:08:24;;;;;;;10.50;2.60;;;;;;;;;;5053927;28;20047;-79
2022/11/03 10:10:50;;;;;;;13.63;2.50;;;;;;;;;;5039423;28;20521;-78
2022/11/03 10:13:40;;;;;;;11.98;2.88;;;;;;;;;;5052401;28;20068;-78
2022/11/03 10:16:07;;;;;;;9.70;2.55;;;;;;;;;;5047130;28;20052;-69
2022/11/03 10:18:34;;;;;;;9.70;2.20;;;;;;;;;;5052755;28;20041;-77
2022/11/03 10:21:03;;;;;;;11.27;2.33;;;;;;;;;;5086636;28;20055;-79
2022/11/03 10:23:29;;;;;;;12.95;2.35;;;;;;;;;;5054085;28;20082;-80
2022/11/03 10:26:03;;;;;;;10.63;2.28;;;;;;;;;;5052727;28;20048;-76
2022/11/03 10:28:29;;;;;;;11.85;2.50;;;;;;;;;;5054439;28;20562;-78
2022/11/03 10:30:58;;;;;;;12.18;2.30;;;;;;;;;;5053644;28;20048;-77
2022/11/03 10:33:25;;;;;;;8.60;1.98;;;;;;;;;;5038654;28;20037;-77
2022/11/03 10:35:51;;;;;;;7.13;2.15;;;;;;;;;;5052752;28;20115;-77
2022/11/03 10:38:20;;;;;;;9.43;2.38;;;;;;;;;;5052162;28;20037;-77
2022/11/03 10:40:46;;;;;;;12.68;2.30;;;;;;;;;;5052355;28;20127;-70
2022/11/03 10:43:12;;;;;;;12.20;2.13;;;;;;;;;;5051338;28;20094;-70
2022/11/03 10:45:38;;;;;;;9.45;2.50;;;;;;;;;;5052011;28;20043;-69
2022/11/03 10:48:08;;;;;;;9.45;2.45;;;;;;;;;;5051508;28;20124;-70
2022/11/03 10:50:34;;;;;;;9.32;2.17;;;;;;;;;;5052338;28;20059;-70
2022/11/03 10:53:01;;;;;;;11.05;2.25;;;;;;;;;;5052113;28;20045;-70
2022/11/03 10:55:28;;;;;;;10.20;2.10;;;;;;;;;;5034761;28;20041;-78
2022/11/03 10:57:54;;;;;;;9.75;2.42;;;;;;;;;;5053123;28;20524;-70
2022/11/03 11:00:21;;;;;;;9.98;2.28;;;;;;;;;;5051731;28;20048;-70
2022/11/03 11:02:48;;;;;;;9.25;2.20;;;;;;;;;;5035089;28;20041;-69
2022/11/03 11:05:17;;;;;;;7.18;2.20;;;;;;;;;;5052487;28;20040;-77
2022/11/03 11:07:44;;;;;;;12.90;2.20;;;;;;;;;;5046699;28;20032;-76
2022/11/03 11:10:22;;;;;;;8.88;2.05;;;;;;;;;;5071693;28;20059;-77
2022/11/03 11:13:08;;;;;;;7.72;1.80;;;;;;;;;;5071725;28;20101;-77
2022/11/03 11:15:37;;;;;;;8.23;2.05;;;;;;;;;;5071719;28;20515;-78
2022/11/03 11:18:03;;;;;;;10.63;2.20;;;;;;;;;;5071901;28;20177;-77
2022/11/03 11:20:34;;;;;;;9.73;2.50;;;;;;;;;;5071758;28;20542;-78
2022/11/03 11:23:19;;;;;;;8.75;2.38;;;;;;;;;;5071810;28;20473;-79
2022/11/03 11:26:17;;;;;;;7.95;2.10;;;;;;;;;;5058621;28;20029;-78
2022/11/03 11:29:07;;;;;;;7.00;1.80;;;;;;;;;;5049189;28;20117;-77
2022/11/03 11:31:33;;;;;;;12.10;2.30;;;;;;;;;;5049889;28;20103;-78
2022/11/03 11:34:20;;;;;;;11.35;2.45;;;;;;;;;;5051191;28;20098;-70
2022/11/03 11:36:55;;;;;;;9.75;2.25;;;;;;;;;;5044367;28;20124;-70
2022/11/03 11:39:27;;;;;;;9.65;2.15;;;;;;;;;;5050862;28;20045;-71
2022/11/03 11:42:12;;;;;;;6.78;2.20;;;;;;;;;;5017560;28;20399;-70
2022/11/03 11:45:01;;;;;;;8.00;2.20;;;;;;;;;;5046906;28;20037;-70
2022/11/03 11:47:43;;;;;;;7.15;2.58;;;;;;;;;;5050620;28;20045;-70
2022/11/03 11:50:09;;;;;;;14.82;2.30;;;;;;;;;;5034207;28;20056;-70
2022/11/03 11:52:41;;;;;;;8.65;2.45;;;;;;;;;;5050560;28;20037;-70
2022/11/03 11:55:18;;;;;;;9.70;2.08;;;;;;;;;;5050270;28;20037;-70
2022/11/03 11:57:45;;;;;;;10.30;2.25;;;;;;;;;;5050834;28;20041;-70
2022/11/03 12:00:22;;;;;;;8.20;1.80;;;;;;;;;;5051369;28;20049;-79
2022/11/03 12:02:49;;;;;;;6.88;1.80;;;;;;;;;;5051297;28;20053;-80
2022/11/03 12:05:23;;;;;;;10.25;2.45;;;;;;;;;;5034371;28;20497;-79
2022/11/03 12:07:50;;;;;;;9.27;2.17;;;;;;;;;;5034297;28;20045;-79
2022/11/03 12:10:17;;;;;;;5.88;1.70;;;;;;;;;;5050855;28;20051;-79
2022/11/03 12:12:43;;;;;;;7.18;1.60;;;;;;;;;;5050794;28;20037;-75
2022/11/03 12:15:28;;;;;;;7.32;1.70;;;;;;;;;;5051904;28;20068;-79
2022/11/03 12:17:54;;;;;;;8.05;2.00;;;;;;;;;;5052660;28;20055;-80
2022/11/03 12:20:46;;;;;;;7.72;2.35;;;;;;;;;;5051957;28;20155;-78
2022/11/03 12:23:31;;;;;;;7.68;1.73;;;;;;;;;;5050949;28;20102;-78
2022/11/03 12:25:57;;;;;;;7.95;1.73;;;;;;;;;;5084489;28;20062;-78
2022/11/03 12:28:31;;;;;;;8.07;2.30;;;;;;;;;;5050577;28;20037;-79
2022/11/03 12:30:57;;;;;;;7.03;1.67;;;;;;;;;;5050836;28;20045;-77
2022/11/03 12:33:23;;;;;;;7.80;2.03;;;;;;;;;;5050700;28;20045;-79
2022/11/03 12:35:49;;;;;;;7.60;1.83;;;;;;;;;;5050965;28;20124;-80
2022/11/03 12:38:16;;;;;;;8.57;1.98;;;;;;;;;;5050665;28;20041;-70
2022/11/03 12:40:42;;;;;;;5.55;1.80;;;;;;;;;;5050461;28;20053;-70
2022/11/03 12:43:08;;;;;;;4.75;1.60;;;;;;;;;;5051560;28;20041;-70
2022/11/03 12:45:34;;;;;;;7.00;1.90;;;;;;;;;;5033547;28;20036;-70
2022/11/03 12:48:00;;;;;;;7.38;1.98;;;;;;;;;;5050506;28;20417;-70
2022/11/03 12:50:26;;;;;;;5.75;1.70;;;;;;;;;;5050127;28;20585;-70
2022/11/03 12:52:52;;;;;;;7.22;1.70;;;;;;;;;;5034023;28;20073;-69
2022/11/03 12:55:18;;;;;;;8.52;2.45;;;;;;;;;;5050114;28;20033;-69
2022/11/03 12:57:45;;;;;;;5.70;1.80;;;;;;;;;;5050614;28;20413;-70
2022/11/03 13:00:11;;;;;;;8.98;1.98;;;;;;;;;;5050331;28;20379;-69
2022/11/03 13:02:38;;;;;;;6.20;1.90;;;;;;;;;;5050164;28;20098;-69
2022/11/03 13:05:05;;;;;;;5.93;1.85;;;;;;;;;;5050440;28;20048;-70
2022/11/03 13:07:31;;;;;;;5.90;1.80;;;;;;;;;;5035327;28;20041;-70
2022/11/03 13:09:58;;;;;;;8.85;2.22;;;;;;;;;;5055180;28;20068;-70
2022/11/03 13:12:30;;;;;;;5.75;1.90;;;;;;;;;;5036858;28;20037;-70
2022/11/03 13:14:56;;;;;;;8.38;2.30;;;;;;;;;;5053745;28;20041;-70
2022/11/03 13:17:22;;;;;;;6.72;1.92;;;;;;;;;;5037045;28;20029;-69
2022/11/03 13:19:49;;;;;;;11.57;1.88;;;;;;;;;;5055018;28;20049;-79
2022/11/03 13:22:15;;;;;;;7.78;2.17;;;;;;;;;;5053675;28;20052;-70
2022/11/03 13:24:41;;;;;;;8.45;2.47;;;;;;;;;;5036945;28;20036;-70
2022/11/03 13:27:07;;;;;;;8.48;2.47;;;;;;;;;;5053707;28;20037;-79
2022/11/03 13:29:33;;;;;;;7.30;2.03;;;;;;;;;;5054367;28;20052;-78
2022/11/03 13:31:59;;;;;;;8.73;1.90;;;;;;;;;;5036858;28;20032;-78
2022/11/03 13:34:25;;;;;;;7.25;2.10;;;;;;;;;;5036577;28;20036;-77
2022/11/03 13:36:51;;;;;;;5.53;1.80;;;;;;;;;;5053883;28;20083;-78
2022/11/03 13:39:17;;;;;;;7.30;2.45;;;;;;;;;;5036815;28;20049;-72
2022/11/03 13:41:43;;;;;;;8.80;1.77;;;;;;;;;;5052925;28;20041;-70
2022/11/03 13:44:09;;;;;;;7.93;2.33;;;;;;;;;;5053262;28;20045;-70
2022/11/03 13:46:36;;;;;;;5.80;1.60;;;;;;;;;;5054046;28;20044;-70
2022/11/03 13:49:02;;;;;;;6.25;1.98;;;;;;;;;;5053007;28;20053;-70
2022/11/03 13:51:28;;;;;;;11.25;2.10;;;;;;;;;;5052727;28;20053;-70
2022/11/03 13:53:54;;;;;;;6.15;1.75;;;;;;;;;;5053337;28;20052;-77
2022/11/03 13:56:20;;;;;;;7.80;2.55;;;;;;;;;;5053568;28;20047;-77
2022/11/03 13:58:47;;;;;;;8.15;2.28;;;;;;;;;;5054671;28;20444;-77
2022/11/03 14:01:13;;;;;;;4.68;1.90;;;;;;;;;;5042238;28;20049;-78
2022/11/03 14:03:39;;;;;;;4.85;1.77;;;;;;;;;;5050267;28;20037;-77
2022/11/03 14:06:05;;;;;;;9.52;2.00;;;;;;;;;;5053219;28;20048;-78
2022/11/03 14:08:31;;;;;;;6.20;1.92;;;;;;;;;;5052727;28;20063;-78
2022/11/03 14:10:57;;;;;;;7.72;2.00;;;;;;;;;;5053083;28;20505;-78
2022/11/03 14:13:23;;;;;;;9.45;2.10;;;;;;;;;;5054391;28;20600;-78
2022/11/03 14:15:50;;;;;;;8.30;2.03;;;;;;;;;;5052443;28;20033;-78
2022/11/03 14:18:17;;;;;;;8.50;1.70;;;;;;;;;;5053232;28;20489;-79
2022/11/03 14:20:43;;;;;;;11.15;2.58;;;;;;;;;;5052883;28;20083;-77
2022/11/03 14:23:09;;;;;;;8.63;2.20;;;;;;;;;;5053061;28;20551;-77
2022/11/03 14:25:35;;;;;;;7.07;2.13;;;;;;;;;;5053644;28;20037;-78
2022/11/03 14:28:01;;;;;;;10.82;2.08;;;;;;;;;;5052860;28;20041;-77
2022/11/03 14:30:27;;;;;;;7.40;2.22;;;;;;;;;;5036225;28;20048;-77
2022/11/03 14:32:53;;;;;;;6.63;1.80;;;;;;;;;;5053794;28;20076;-77
2022/11/03 14:35:21;;;;;;;7.22;2.40;;;;;;;;;;5053307;28;20442;-79
2022/11/03 14:37:47;;;;;;;6.15;1.70;;;;;;;;;;5052296;28;20045;-78
2022/11/03 14:42:02;;;;;;;8.02;2.00;;;;;;;;;;5053809;28;20045;-70
2022/11/03 14:43:00;;;;;;;4.88;1.65;;;;;;;;;;5052698;28;20129;-70
2022/11/03 14:45:26;;;;;;;7.57;1.98;;;;;;;;;;5052551;28;20110;-77
2022/11/03 14:47:52;;;;;;;9.60;1.90;;;;;;;;;;5051715;28;20048;-79
2022/11/03 14:50:18;;;;;;;9.20;2.20;;;;;;;;;;5053179;28;20081;-78
2022/11/03 14:52:44;;;;;;;7.22;1.92;;;;;;;;;;5051765;28;20052;-77
2022/11/03 14:55:10;;;;;;;7.07;2.20;;;;;;;;;;5035414;28;20078;-77
2022/11/03 14:57:36;;;;;;;6.07;2.10;;;;;;;;;;5051649;28;20037;-78